sensor_id;sensor_type;location;lat;lon;timestamp;pressure;altitude;pressure_sealevel;temperature;humidity
12951;BME280;6540;50.858;7.232;2023-11-19T00:02:13;51904.97;;;-142.34;31.89
12951;BME280;6540;50.858;7.232;2023-11-19T00:04:39;51915.06;;;-142.34;31.82
12951;BME280;6540;50.858;7.232;2023-11-19T00:07:05;51925.16;;;-142.34;31.62
12951;BME280;6540;50.858;7.232;2023-11-19T00:09:32;51931.19;;;-142.34;31.58
12951;BME280;6540;50.858;7.232;2023-11-19T00:11:57;51911.03;;;-142.34;32.62
12951;BME280;6540;50.858;7.232;2023-11-19T00:14:23;51943.31;;;-142.34;32.32
12951;BME280;6540;50.858;7.232;2023-11-19T00:16:49;51929.19;;;-142.34;31.67
12951;BME280;6540;50.858;7.232;2023-11-19T00:19:16;51915.06;;;-142.34;31.28
12951;BME280;6540;50.858;7.232;2023-11-19T00:21:41;51902.97;;;-142.34;30.89
12951;BME280;6540;50.858;7.232;2023-11-19T00:24:07;51917.06;;;-142.34;31.87
12951;BME280;6540;50.858;7.232;2023-11-19T00:26:33;51874.72;;;-142.34;31.27
12951;BME280;6540;50.858;7.232;2023-11-19T00:28:59;51911.03;;;-142.34;31.71
12951;BME280;6540;50.858;7.232;2023-11-19T00:31:24;51907.00;;;-142.34;31.79
12951;BME280;6540;50.858;7.232;2023-11-19T00:33:51;51904.97;;;-142.34;31.82
12951;BME280;6540;50.858;7.232;2023-11-19T00:36:16;51911.03;;;-142.34;31.88
12951;BME280;6540;50.858;7.232;2023-11-19T00:38:42;51947.34;;;-142.34;31.96
12951;BME280;6540;50.858;7.232;2023-11-19T00:41:07;51898.94;;;-142.34;31.60
12951;BME280;6540;50.858;7.232;2023-11-19T00:43:33;51913.03;;;-142.34;32.16
12951;BME280;6540;50.858;7.232;2023-11-19T00:45:58;51907.00;;;-142.34;32.28
12951;BME280;6540;50.858;7.232;2023-11-19T00:48:23;51911.03;;;-142.34;32.01
12951;BME280;6540;50.858;7.232;2023-11-19T00:50:49;51890.84;;;-142.34;32.83
12951;BME280;6540;50.858;7.232;2023-11-19T00:53:14;51876.72;;;-142.34;31.75
12951;BME280;6540;50.858;7.232;2023-11-19T00:55:39;51894.88;;;-142.34;31.84
12951;BME280;6540;50.858;7.232;2023-11-19T00:58:05;51911.03;;;-142.34;32.35
12951;BME280;6540;50.858;7.232;2023-11-19T01:00:30;51907.00;;;-142.34;31.99
12951;BME280;6540;50.858;7.232;2023-11-19T01:02:57;51915.06;;;-142.34;32.09
12951;BME280;6540;50.858;7.232;2023-11-19T01:05:23;51880.78;;;-142.34;31.62
12951;BME280;6540;50.858;7.232;2023-11-19T01:07:48;51898.94;;;-142.34;32.00
12951;BME280;6540;50.858;7.232;2023-11-19T01:10:14;51870.69;;;-142.34;33.29
12951;BME280;6540;50.858;7.232;2023-11-19T01:12:41;51943.31;;;-142.34;32.63
12951;BME280;6540;50.858;7.232;2023-11-19T01:15:07;51874.72;;;-142.34;32.25
12951;BME280;6540;50.858;7.232;2023-11-19T01:17:33;51923.13;;;-142.34;31.89
12951;BME280;6540;50.858;7.232;2023-11-19T01:19:58;51923.13;;;-142.34;32.57
12951;BME280;6540;50.858;7.232;2023-11-19T01:22:23;51894.88;;;-142.34;32.38
12951;BME280;6540;50.858;7.232;2023-11-19T01:24:49;51915.06;;;-142.34;32.81
12951;BME280;6540;50.858;7.232;2023-11-19T01:27:14;51884.81;;;-142.34;32.11
12951;BME280;6540;50.858;7.232;2023-11-19T01:29:40;51882.78;;;-142.34;31.72
12951;BME280;6540;50.858;7.232;2023-11-19T01:32:06;51933.22;;;-142.34;32.92
12951;BME280;6540;50.858;7.232;2023-11-19T01:34:31;51927.16;;;-142.34;32.39
12951;BME280;6540;50.858;7.232;2023-11-19T01:36:57;51923.13;;;-142.34;32.36
12951;BME280;6540;50.858;7.232;2023-11-19T01:39:22;51913.03;;;-142.34;31.96
12951;BME280;6540;50.858;7.232;2023-11-19T01:41:48;51921.13;;;-142.34;32.18
12951;BME280;6540;50.858;7.232;2023-11-19T01:44:13;51951.38;;;-142.34;32.76
12951;BME280;6540;50.858;7.232;2023-11-19T01:46:40;51900.94;;;-142.34;31.86
12951;BME280;6540;50.858;7.232;2023-11-19T01:49:07;51878.75;;;-142.34;32.10
12951;BME280;6540;50.858;7.232;2023-11-19T01:51:32;51925.16;;;-142.34;32.51
12951;BME280;6540;50.858;7.232;2023-11-19T01:53:58;51892.88;;;-142.34;32.33
12951;BME280;6540;50.858;7.232;2023-11-19T01:56:25;51874.72;;;-142.34;32.28
12951;BME280;6540;50.858;7.232;2023-11-19T01:58:53;51907.00;;;-142.34;32.64
12951;BME280;6540;50.858;7.232;2023-11-19T02:01:20;51894.88;;;-142.34;32.44
12951;BME280;6540;50.858;7.232;2023-11-19T02:03:45;51902.97;;;-142.34;32.38
12951;BME280;6540;50.858;7.232;2023-11-19T02:06:12;51919.09;;;-142.34;32.17
12951;BME280;6540;50.858;7.232;2023-11-19T02:08:37;51898.94;;;-142.34;32.26
12951;BME280;6540;50.858;7.232;2023-11-19T02:11:04;51904.97;;;-142.34;32.79
12951;BME280;6540;50.858;7.232;2023-11-19T02:13:32;51894.88;;;-142.34;32.73
12951;BME280;6540;50.858;7.232;2023-11-19T02:15:57;51904.97;;;-142.34;32.96
12951;BME280;6540;50.858;7.232;2023-11-19T02:18:27;51935.25;;;-142.34;32.97
12951;BME280;6540;50.858;7.232;2023-11-19T02:20:59;51907.00;;;-142.34;32.25
12951;BME280;6540;50.858;7.232;2023-11-19T02:23:28;51890.84;;;-142.34;31.92
12951;BME280;6540;50.858;7.232;2023-11-19T02:26:17;51927.16;;;-142.34;32.52
12951;BME280;6540;50.858;7.232;2023-11-19T02:28:44;51931.19;;;-142.34;33.09
12951;BME280;6540;50.858;7.232;2023-11-19T02:31:10;51911.03;;;-142.34;32.61
12951;BME280;6540;50.858;7.232;2023-11-19T02:33:36;51890.84;;;-142.34;32.85
12951;BME280;6540;50.858;7.232;2023-11-19T02:36:05;51902.97;;;-142.34;33.22
12951;BME280;6540;50.858;7.232;2023-11-19T02:38:32;51939.28;;;-142.34;33.48
12951;BME280;6540;50.858;7.232;2023-11-19T02:40:58;51917.06;;;-142.34;33.38
12951;BME280;6540;50.858;7.232;2023-11-19T02:43:23;51904.97;;;-142.34;33.15
12951;BME280;6540;50.858;7.232;2023-11-19T02:45:49;51943.31;;;-142.34;32.74
12951;BME280;6540;50.858;7.232;2023-11-19T02:48:14;51888.84;;;-142.34;32.38
12951;BME280;6540;50.858;7.232;2023-11-19T02:50:41;51911.03;;;-142.34;32.64
12951;BME280;6540;50.858;7.232;2023-11-19T02:53:07;51915.06;;;-142.34;32.68
12951;BME280;6540;50.858;7.232;2023-11-19T02:55:32;51902.97;;;-142.34;32.71
12951;BME280;6540;50.858;7.232;2023-11-19T02:58:03;51917.06;;;-142.34;32.67
12951;BME280;6540;50.858;7.232;2023-11-19T03:00:34;51919.09;;;-142.34;32.88
12951;BME280;6540;50.858;7.232;2023-11-19T03:03:03;51888.84;;;-142.34;32.80
12951;BME280;6540;50.858;7.232;2023-11-19T03:05:43;51892.88;;;-142.34;32.66
12951;BME280;6540;50.858;7.232;2023-11-19T03:08:09;51915.06;;;-142.34;32.83
12951;BME280;6540;50.858;7.232;2023-11-19T03:10:35;51894.88;;;-142.34;33.22
12951;BME280;6540;50.858;7.232;2023-11-19T03:13:01;51900.94;;;-142.34;33.32
12951;BME280;6540;50.858;7.232;2023-11-19T03:15:28;51913.03;;;-142.34;33.00
12951;BME280;6540;50.858;7.232;2023-11-19T03:17:53;51919.09;;;-142.34;33.69
12951;BME280;6540;50.858;7.232;2023-11-19T03:20:19;51919.09;;;-142.34;33.50
12951;BME280;6540;50.858;7.232;2023-11-19T03:22:46;51907.00;;;-142.34;33.43
12951;BME280;6540;50.858;7.232;2023-11-19T03:25:11;51894.88;;;-142.34;33.18
12951;BME280;6540;50.858;7.232;2023-11-19T03:27:38;51890.84;;;-142.34;33.88
12951;BME280;6540;50.858;7.232;2023-11-19T03:30:07;51929.19;;;-142.34;33.07
12951;BME280;6540;50.858;7.232;2023-11-19T03:32:34;51919.09;;;-142.34;32.81
12951;BME280;6540;50.858;7.232;2023-11-19T03:35:01;51923.13;;;-142.34;32.91
12951;BME280;6540;50.858;7.232;2023-11-19T03:37:27;51915.06;;;-142.34;32.73
12951;BME280;6540;50.858;7.232;2023-11-19T03:39:54;51923.13;;;-142.34;32.84
12951;BME280;6540;50.858;7.232;2023-11-19T03:42:20;51907.00;;;-142.34;32.73
12951;BME280;6540;50.858;7.232;2023-11-19T03:44:46;51947.34;;;-142.34;33.25
12951;BME280;6540;50.858;7.232;2023-11-19T03:47:11;51907.00;;;-142.34;32.76
12951;BME280;6540;50.858;7.232;2023-11-19T03:49:36;51911.03;;;-142.34;33.32
12951;BME280;6540;50.858;7.232;2023-11-19T03:52:02;51947.34;;;-142.34;32.46
12951;BME280;6540;50.858;7.232;2023-11-19T03:54:27;51921.13;;;-142.34;31.99
12951;BME280;6540;50.858;7.232;2023-11-19T03:56:53;51919.09;;;-142.34;31.68
12951;BME280;6540;50.858;7.232;2023-11-19T03:59:18;51886.81;;;-142.34;31.62
12951;BME280;6540;50.858;7.232;2023-11-19T04:01:45;51911.03;;;-142.34;31.64
12951;BME280;6540;50.858;7.232;2023-11-19T04:04:11;51927.16;;;-142.34;31.69
12951;BME280;6540;50.858;7.232;2023-11-19T04:06:36;51902.97;;;-142.34;31.43
12951;BME280;6540;50.858;7.232;2023-11-19T04:09:01;51898.94;;;-142.34;32.39
12951;BME280;6540;50.858;7.232;2023-11-19T04:11:27;51894.88;;;-142.34;32.64
12951;BME280;6540;50.858;7.232;2023-11-19T04:13:53;51896.91;;;-142.34;32.14
12951;BME280;6540;50.858;7.232;2023-11-19T04:16:18;51886.81;;;-142.34;32.11
12951;BME280;6540;50.858;7.232;2023-11-19T04:18:43;51913.03;;;-142.34;32.15
12951;BME280;6540;50.858;7.232;2023-11-19T04:21:09;51898.94;;;-142.34;31.84
12951;BME280;6540;50.858;7.232;2023-11-19T04:23:34;51927.16;;;-142.34;31.86
12951;BME280;6540;50.858;7.232;2023-11-19T04:26:03;51896.91;;;-142.34;31.42
12951;BME280;6540;50.858;7.232;2023-11-19T04:28:30;51886.81;;;-142.34;31.65
12951;BME280;6540;50.858;7.232;2023-11-19T04:30:55;51904.97;;;-142.34;32.04
12951;BME280;6540;50.858;7.232;2023-11-19T04:33:21;51915.06;;;-142.34;32.12
12951;BME280;6540;50.858;7.232;2023-11-19T04:35:46;51890.84;;;-142.34;32.22
12951;BME280;6540;50.858;7.232;2023-11-19T04:38:11;51900.94;;;-142.34;31.80
12951;BME280;6540;50.858;7.232;2023-11-19T04:40:37;51890.84;;;-142.34;31.77
12951;BME280;6540;50.858;7.232;2023-11-19T04:43:02;51913.03;;;-142.34;32.21
12951;BME280;6540;50.858;7.232;2023-11-19T04:45:28;51894.88;;;-142.34;32.00
12951;BME280;6540;50.858;7.232;2023-11-19T04:47:53;51898.94;;;-142.34;31.73
12951;BME280;6540;50.858;7.232;2023-11-19T04:50:18;51907.00;;;-142.34;32.22
12951;BME280;6540;50.858;7.232;2023-11-19T04:52:44;51898.94;;;-142.34;31.75
12951;BME280;6540;50.858;7.232;2023-11-19T04:55:10;51896.91;;;-142.34;31.50
12951;BME280;6540;50.858;7.232;2023-11-19T04:57:39;51858.56;;;-142.34;31.93
12951;BME280;6540;50.858;7.232;2023-11-19T05:00:05;51886.81;;;-142.34;31.89
12951;BME280;6540;50.858;7.232;2023-11-19T05:02:32;51929.19;;;-142.34;31.96
12951;BME280;6540;50.858;7.232;2023-11-19T05:04:57;51907.00;;;-142.34;32.12
12951;BME280;6540;50.858;7.232;2023-11-19T05:07:23;51878.75;;;-142.34;31.57
12951;BME280;6540;50.858;7.232;2023-11-19T05:09:48;51911.03;;;-142.34;31.65
12951;BME280;6540;50.858;7.232;2023-11-19T05:12:13;51890.84;;;-142.34;31.66
12951;BME280;6540;50.858;7.232;2023-11-19T05:14:39;51907.00;;;-142.34;31.82
12951;BME280;6540;50.858;7.232;2023-11-19T05:17:04;51894.88;;;-142.34;31.72
12951;BME280;6540;50.858;7.232;2023-11-19T05:19:29;51919.09;;;-142.34;31.83
12951;BME280;6540;50.858;7.232;2023-11-19T05:21:55;51911.03;;;-142.34;31.88
12951;BME280;6540;50.858;7.232;2023-11-19T05:24:20;51886.81;;;-142.34;31.90
12951;BME280;6540;50.858;7.232;2023-11-19T05:26:45;51911.03;;;-142.34;31.95
12951;BME280;6540;50.858;7.232;2023-11-19T05:29:12;51882.78;;;-142.34;31.58
12951;BME280;6540;50.858;7.232;2023-11-19T05:31:37;51880.78;;;-142.34;31.64
12951;BME280;6540;50.858;7.232;2023-11-19T05:34:03;51904.97;;;-142.34;32.21
12951;BME280;6540;50.858;7.232;2023-11-19T05:36:32;51882.78;;;-142.34;31.67
12951;BME280;6540;50.858;7.232;2023-11-19T05:38:58;51927.16;;;-142.34;31.63
12951;BME280;6540;50.858;7.232;2023-11-19T05:41:23;51898.94;;;-142.34;31.88
12951;BME280;6540;50.858;7.232;2023-11-19T05:43:49;51882.78;;;-142.34;31.73
12951;BME280;6540;50.858;7.232;2023-11-19T05:46:14;51858.56;;;-142.34;31.71
12951;BME280;6540;50.858;7.232;2023-11-19T05:48:40;51880.78;;;-142.34;31.62
12951;BME280;6540;50.858;7.232;2023-11-19T05:51:05;51870.69;;;-142.34;31.89
12951;BME280;6540;50.858;7.232;2023-11-19T05:53:31;51850.50;;;-142.34;31.72
12951;BME280;6540;50.858;7.232;2023-11-19T05:55:57;51909.00;;;-142.34;31.99
12951;BME280;6540;50.858;7.232;2023-11-19T05:58:26;51870.69;;;-142.34;31.21
12951;BME280;6540;50.858;7.232;2023-11-19T06:00:54;51882.78;;;-142.34;31.89
12951;BME280;6540;50.858;7.232;2023-11-19T06:03:20;51878.75;;;-142.34;31.66
12951;BME280;6540;50.858;7.232;2023-11-19T06:05:47;51866.66;;;-142.34;31.57
12951;BME280;6540;50.858;7.232;2023-11-19T06:08:12;51907.00;;;-142.34;31.82
12951;BME280;6540;50.858;7.232;2023-11-19T06:10:41;51902.97;;;-142.34;31.74
12951;BME280;6540;50.858;7.232;2023-11-19T06:13:07;51862.63;;;-142.34;31.50
12951;BME280;6540;50.858;7.232;2023-11-19T06:15:35;51890.84;;;-142.34;32.06
12951;BME280;6540;50.858;7.232;2023-11-19T06:18:01;51898.94;;;-142.34;31.49
12951;BME280;6540;50.858;7.232;2023-11-19T06:20:28;51882.78;;;-142.34;31.60
12951;BME280;6540;50.858;7.232;2023-11-19T06:22:54;51882.78;;;-142.34;31.84
12951;BME280;6540;50.858;7.232;2023-11-19T06:25:22;51878.75;;;-142.34;31.94
12951;BME280;6540;50.858;7.232;2023-11-19T06:27:49;51911.03;;;-142.34;31.31
12951;BME280;6540;50.858;7.232;2023-11-19T06:30:14;51894.88;;;-142.34;31.55
12951;BME280;6540;50.858;7.232;2023-11-19T06:32:40;51892.88;;;-142.34;31.90
12951;BME280;6540;50.858;7.232;2023-11-19T06:35:05;51882.78;;;-142.34;31.95
12951;BME280;6540;50.858;7.232;2023-11-19T06:37:31;51909.00;;;-142.34;31.79
12951;BME280;6540;50.858;7.232;2023-11-19T06:39:56;51907.00;;;-142.34;31.55
12951;BME280;6540;50.858;7.232;2023-11-19T06:42:21;51904.97;;;-142.34;32.06
12951;BME280;6540;50.858;7.232;2023-11-19T06:44:47;51870.69;;;-142.34;31.27
12951;BME280;6540;50.858;7.232;2023-11-19T06:47:12;51907.00;;;-142.34;31.65
12951;BME280;6540;50.858;7.232;2023-11-19T06:49:37;51894.88;;;-142.34;31.53
12951;BME280;6540;50.858;7.232;2023-11-19T06:52:11;51888.84;;;-142.34;31.70
12951;BME280;6540;50.858;7.232;2023-11-19T06:54:39;51882.78;;;-142.34;31.67
12951;BME280;6540;50.858;7.232;2023-11-19T06:57:04;51890.84;;;-142.34;31.86
12951;BME280;6540;50.858;7.232;2023-11-19T06:59:30;51886.81;;;-142.34;31.84
12951;BME280;6540;50.858;7.232;2023-11-19T07:01:56;51886.81;;;-142.34;31.45
12951;BME280;6540;50.858;7.232;2023-11-19T07:04:21;51880.78;;;-142.34;31.88
12951;BME280;6540;50.858;7.232;2023-11-19T07:06:46;51913.03;;;-142.34;31.81
12951;BME280;6540;50.858;7.232;2023-11-19T07:09:13;51862.63;;;-142.34;31.76
12951;BME280;6540;50.858;7.232;2023-11-19T07:11:40;51913.03;;;-142.34;31.88
12951;BME280;6540;50.858;7.232;2023-11-19T07:14:07;51878.75;;;-142.34;31.96
12951;BME280;6540;50.858;7.232;2023-11-19T07:18:37;51909.00;;;-142.34;32.39
12951;BME280;6540;50.858;7.232;2023-11-19T07:21:04;51919.09;;;-142.34;32.49
12951;BME280;6540;50.858;7.232;2023-11-19T07:23:29;51913.03;;;-142.34;32.23
12951;BME280;6540;50.858;7.232;2023-11-19T07:25:55;51882.78;;;-142.34;33.29
12951;BME280;6540;50.858;7.232;2023-11-19T07:28:20;51886.81;;;-142.34;32.01
12951;BME280;6540;50.858;7.232;2023-11-19T07:30:45;51882.78;;;-142.34;31.77
12951;BME280;6540;50.858;7.232;2023-11-19T07:33:11;51872.69;;;-142.34;31.45
12951;BME280;6540;50.858;7.232;2023-11-19T07:35:38;51898.94;;;-142.34;31.73
12951;BME280;6540;50.858;7.232;2023-11-19T07:38:04;51898.94;;;-142.34;31.43
12951;BME280;6540;50.858;7.232;2023-11-19T07:40:30;51886.81;;;-142.34;32.08
12951;BME280;6540;50.858;7.232;2023-11-19T07:42:55;51862.63;;;-142.34;31.69
12951;BME280;6540;50.858;7.232;2023-11-19T07:45:21;51923.13;;;-142.34;31.53
12951;BME280;6540;50.858;7.232;2023-11-19T07:47:46;51909.00;;;-142.34;31.22
12951;BME280;6540;50.858;7.232;2023-11-19T07:50:11;51921.13;;;-142.34;31.77
12951;BME280;6540;50.858;7.232;2023-11-19T07:52:39;51884.81;;;-142.34;31.63
12951;BME280;6540;50.858;7.232;2023-11-19T07:55:05;51913.03;;;-142.34;31.50
12951;BME280;6540;50.858;7.232;2023-11-19T07:57:30;51921.13;;;-142.34;31.29
12951;BME280;6540;50.858;7.232;2023-11-19T07:59:57;51888.84;;;-142.34;31.00
12951;BME280;6540;50.858;7.232;2023-11-19T08:02:22;51878.75;;;-142.34;30.72
12951;BME280;6540;50.858;7.232;2023-11-19T08:04:49;51874.72;;;-142.34;31.05
12951;BME280;6540;50.858;7.232;2023-11-19T08:07:17;51902.97;;;-142.34;31.00
12951;BME280;6540;50.858;7.232;2023-11-19T08:09:43;51900.94;;;-142.34;31.26
12951;BME280;6540;50.858;7.232;2023-11-19T08:12:08;51884.81;;;-142.34;30.99
12951;BME280;6540;50.858;7.232;2023-11-19T08:14:34;51880.78;;;-142.34;32.33
12951;BME280;6540;50.858;7.232;2023-11-19T08:17:00;51913.03;;;-142.34;32.08
12951;BME280;6540;50.858;7.232;2023-11-19T08:19:25;51917.06;;;-142.34;32.15
12951;BME280;6540;50.858;7.232;2023-11-19T08:21:51;51888.84;;;-142.34;32.03
12951;BME280;6540;50.858;7.232;2023-11-19T08:24:16;51927.16;;;-142.34;31.50
12951;BME280;6540;50.858;7.232;2023-11-19T08:26:42;51907.00;;;-142.34;31.45
12951;BME280;6540;50.858;7.232;2023-11-19T08:29:07;51904.97;;;-142.34;31.20
12951;BME280;6540;50.858;7.232;2023-11-19T08:31:32;51900.94;;;-142.34;31.77
12951;BME280;6540;50.858;7.232;2023-11-19T08:33:58;51904.97;;;-142.34;31.46
12951;BME280;6540;50.858;7.232;2023-11-19T08:36:23;51870.69;;;-142.34;30.73
12951;BME280;6540;50.858;7.232;2023-11-19T08:38:48;51902.97;;;-142.34;31.19
12951;BME280;6540;50.858;7.232;2023-11-19T08:41:14;51915.06;;;-142.34;32.11
12951;BME280;6540;50.858;7.232;2023-11-19T08:43:39;51886.81;;;-142.34;31.13
12951;BME280;6540;50.858;7.232;2023-11-19T08:46:09;51904.97;;;-142.34;31.47
12951;BME280;6540;50.858;7.232;2023-11-19T08:48:35;51915.06;;;-142.34;31.08
12951;BME280;6540;50.858;7.232;2023-11-19T08:51:00;51911.03;;;-142.34;31.31
12951;BME280;6540;50.858;7.232;2023-11-19T08:53:26;51919.09;;;-142.34;31.89
12951;BME280;6540;50.858;7.232;2023-11-19T08:55:51;51937.25;;;-142.34;32.35
12951;BME280;6540;50.858;7.232;2023-11-19T08:58:17;51882.78;;;-142.34;31.82
12951;BME280;6540;50.858;7.232;2023-11-19T09:00:43;51846.47;;;-142.34;31.79
12951;BME280;6540;50.858;7.232;2023-11-19T09:03:08;51868.66;;;-142.34;31.16
12951;BME280;6540;50.858;7.232;2023-11-19T09:05:34;51898.94;;;-142.34;32.18
12951;BME280;6540;50.858;7.232;2023-11-19T09:07:59;51882.78;;;-142.34;31.33
12951;BME280;6540;50.858;7.232;2023-11-19T09:10:25;51917.06;;;-142.34;31.26
12951;BME280;6540;50.858;7.232;2023-11-19T09:12:52;51923.13;;;-142.34;31.43
12951;BME280;6540;50.858;7.232;2023-11-19T09:15:17;51874.72;;;-142.34;32.21
12951;BME280;6540;50.858;7.232;2023-11-19T09:17:43;51898.94;;;-142.34;31.10
12951;BME280;6540;50.858;7.232;2023-11-19T09:20:09;51876.72;;;-142.34;31.56
12951;BME280;6540;50.858;7.232;2023-11-19T09:22:37;51943.31;;;-142.34;31.16
12951;BME280;6540;50.858;7.232;2023-11-19T09:25:03;51902.97;;;-142.34;31.45
12951;BME280;6540;50.858;7.232;2023-11-19T09:27:30;51898.94;;;-142.34;31.17
12951;BME280;6540;50.858;7.232;2023-11-19T09:29:55;51874.72;;;-142.34;30.84
12951;BME280;6540;50.858;7.232;2023-11-19T09:32:23;51878.75;;;-142.34;30.99
12951;BME280;6540;50.858;7.232;2023-11-19T09:34:48;51927.16;;;-142.34;31.21
12951;BME280;6540;50.858;7.232;2023-11-19T09:37:14;51898.94;;;-142.34;31.23
12951;BME280;6540;50.858;7.232;2023-11-19T09:39:39;51925.16;;;-142.34;30.26
12951;BME280;6540;50.858;7.232;2023-11-19T09:42:08;51876.72;;;-142.34;30.58
12951;BME280;6540;50.858;7.232;2023-11-19T09:44:34;51864.63;;;-142.34;30.24
12951;BME280;6540;50.858;7.232;2023-11-19T09:47:00;51890.84;;;-142.34;30.46
12951;BME280;6540;50.858;7.232;2023-11-19T09:49:26;51898.94;;;-142.34;31.38
12951;BME280;6540;50.858;7.232;2023-11-19T09:51:52;51925.16;;;-142.34;31.24
12951;BME280;6540;50.858;7.232;2023-11-19T09:54:17;51921.13;;;-142.34;30.96
12951;BME280;6540;50.858;7.232;2023-11-19T09:56:43;51898.94;;;-142.34;30.82
12951;BME280;6540;50.858;7.232;2023-11-19T09:59:25;51884.81;;;-142.34;30.59
12951;BME280;6540;50.858;7.232;2023-11-19T10:01:52;51911.03;;;-142.34;31.09
12951;BME280;6540;50.858;7.232;2023-11-19T10:04:19;51902.97;;;-142.34;30.36
12951;BME280;6540;50.858;7.232;2023-11-19T10:06:44;51907.00;;;-142.34;30.89
12951;BME280;6540;50.858;7.232;2023-11-19T10:09:12;51898.94;;;-142.34;30.48
12951;BME280;6540;50.858;7.232;2023-11-19T10:11:37;51915.06;;;-142.34;30.75
12951;BME280;6540;50.858;7.232;2023-11-19T10:14:03;51902.97;;;-142.34;29.78
12951;BME280;6540;50.858;7.232;2023-11-19T10:16:29;51919.09;;;-142.34;31.08
12951;BME280;6540;50.858;7.232;2023-11-19T10:18:57;51931.19;;;-142.34;30.94
12951;BME280;6540;50.858;7.232;2023-11-19T10:21:23;51907.00;;;-142.34;31.51
12951;BME280;6540;50.858;7.232;2023-11-19T10:23:54;51913.03;;;-142.34;31.69
12951;BME280;6540;50.858;7.232;2023-11-19T10:26:22;51904.97;;;-142.34;31.23
12951;BME280;6540;50.858;7.232;2023-11-19T10:28:48;51902.97;;;-142.34;30.66
12951;BME280;6540;50.858;7.232;2023-11-19T10:31:14;51866.66;;;-142.34;31.54
12951;BME280;6540;50.858;7.232;2023-11-19T10:33:39;51943.31;;;-142.34;31.38
12951;BME280;6540;50.858;7.232;2023-11-19T10:36:05;51913.03;;;-142.34;30.05
12951;BME280;6540;50.858;7.232;2023-11-19T10:38:31;51919.09;;;-142.34;30.05
12951;BME280;6540;50.858;7.232;2023-11-19T10:40:57;51902.97;;;-142.34;30.19
12951;BME280;6540;50.858;7.232;2023-11-19T10:43:30;51911.03;;;-142.34;29.54
12951;BME280;6540;50.858;7.232;2023-11-19T10:46:14;51886.81;;;-142.34;30.00
12951;BME280;6540;50.858;7.232;2023-11-19T10:48:40;51902.97;;;-142.34;29.75
12951;BME280;6540;50.858;7.232;2023-11-19T10:51:06;51904.97;;;-142.34;29.78
12951;BME280;6540;50.858;7.232;2023-11-19T10:53:36;51876.72;;;-142.34;30.16
12951;BME280;6540;50.858;7.232;2023-11-19T10:56:02;51872.69;;;-142.34;30.26
12951;BME280;6540;50.858;7.232;2023-11-19T10:58:32;51886.81;;;-142.34;30.41
12951;BME280;6540;50.858;7.232;2023-11-19T11:01:01;51888.84;;;-142.34;30.02
12951;BME280;6540;50.858;7.232;2023-11-19T11:03:36;51878.75;;;-142.34;28.85
12951;BME280;6540;50.858;7.232;2023-11-19T11:06:05;51858.56;;;-142.34;29.23
12951;BME280;6540;50.858;7.232;2023-11-19T11:08:31;51894.88;;;-142.34;29.65
12951;BME280;6540;50.858;7.232;2023-11-19T11:10:56;51898.94;;;-142.34;29.41
12951;BME280;6540;50.858;7.232;2023-11-19T11:13:26;51890.84;;;-142.34;29.42
12951;BME280;6540;50.858;7.232;2023-11-19T11:15:55;51894.88;;;-142.34;30.09
12951;BME280;6540;50.858;7.232;2023-11-19T11:18:23;51878.75;;;-142.34;29.65
12951;BME280;6540;50.858;7.232;2023-11-19T11:20:52;51896.91;;;-142.34;30.29
12951;BME280;6540;50.858;7.232;2023-11-19T11:23:46;51894.88;;;-142.34;29.41
12951;BME280;6540;50.858;7.232;2023-11-19T11:26:35;51900.94;;;-142.34;29.38
12951;BME280;6540;50.858;7.232;2023-11-19T11:29:26;51852.53;;;-142.34;29.01
12951;BME280;6540;50.858;7.232;2023-11-19T11:37:43;51902.97;;;-142.34;29.85
12951;BME280;6540;50.858;7.232;2023-11-19T11:40:14;51872.69;;;-142.34;29.73
12951;BME280;6540;50.858;7.232;2023-11-19T11:42:41;51886.81;;;-142.34;29.25
12951;BME280;6540;50.858;7.232;2023-11-19T11:55:52;51894.88;;;-142.34;29.36
12951;BME280;6540;50.858;7.232;2023-11-19T11:58:22;51888.84;;;-142.34;29.89
12951;BME280;6540;50.858;7.232;2023-11-19T12:00:51;51880.78;;;-142.34;29.95
12951;BME280;6540;50.858;7.232;2023-11-19T12:03:20;51888.84;;;-142.34;30.38
12951;BME280;6540;50.858;7.232;2023-11-19T12:05:47;51894.88;;;-142.34;29.09
12951;BME280;6540;50.858;7.232;2023-11-19T12:08:14;51915.06;;;-142.34;29.83
12951;BME280;6540;50.858;7.232;2023-11-19T12:10:52;51890.84;;;-142.34;29.51
12951;BME280;6540;50.858;7.232;2023-11-19T12:13:18;51898.94;;;-142.34;30.30
12951;BME280;6540;50.858;7.232;2023-11-19T12:20:54;51850.50;;;-142.34;29.19
12951;BME280;6540;50.858;7.232;2023-11-19T12:23:20;51886.81;;;-142.34;30.04
12951;BME280;6540;50.858;7.232;2023-11-19T12:25:45;51904.97;;;-142.34;28.87
12951;BME280;6540;50.858;7.232;2023-11-19T12:28:15;51890.84;;;-142.34;30.94
12951;BME280;6540;50.858;7.232;2023-11-19T12:30:45;51902.97;;;-142.34;29.85
12951;BME280;6540;50.858;7.232;2023-11-19T12:33:11;51898.94;;;-142.34;30.33
12951;BME280;6540;50.858;7.232;2023-11-19T12:35:41;51880.78;;;-142.34;30.00
12951;BME280;6540;50.858;7.232;2023-11-19T12:38:08;51907.00;;;-142.34;29.57
12951;BME280;6540;50.858;7.232;2023-11-19T12:40:33;51878.75;;;-142.34;30.26
12951;BME280;6540;50.858;7.232;2023-11-19T12:42:59;51892.88;;;-142.34;29.82
12951;BME280;6540;50.858;7.232;2023-11-19T12:45:34;51931.19;;;-142.34;29.75
12951;BME280;6540;50.858;7.232;2023-11-19T12:48:07;51878.75;;;-142.34;30.02
12951;BME280;6540;50.858;7.232;2023-11-19T12:50:56;51911.03;;;-142.34;29.63
12951;BME280;6540;50.858;7.232;2023-11-19T12:53:23;51894.88;;;-142.34;29.48
12951;BME280;6540;50.858;7.232;2023-11-19T12:55:48;51890.84;;;-142.34;30.23
12951;BME280;6540;50.858;7.232;2023-11-19T12:58:34;51886.81;;;-142.34;29.45
12951;BME280;6540;50.858;7.232;2023-11-19T13:03:33;51900.94;;;-142.34;30.02
12951;BME280;6540;50.858;7.232;2023-11-19T13:06:07;51846.47;;;-142.34;29.75
12951;BME280;6540;50.858;7.232;2023-11-19T13:08:44;51904.97;;;-142.34;29.54
12951;BME280;6540;50.858;7.232;2023-11-19T13:11:14;51896.91;;;-142.34;30.26
12951;BME280;6540;50.858;7.232;2023-11-19T13:13:59;51894.88;;;-142.34;30.87
12951;BME280;6540;50.858;7.232;2023-11-19T13:16:26;51886.81;;;-142.34;30.66